createdAt,value
2023-06-11T00:00:53.662Z,17.35
2023-06-11T00:03:22.573Z,17.33
2023-06-11T00:05:50.163Z,17.32
2023-06-11T00:08:17.570Z,17.32
2023-06-11T00:10:45.056Z,17.32
2023-06-11T00:13:12.611Z,17.26
2023-06-11T00:15:40.091Z,17.12
2023-06-11T00:18:07.653Z,17.08
2023-06-11T00:20:42.932Z,17.07
2023-06-11T00:23:10.600Z,16.93
2023-06-11T00:25:38.434Z,16.90
2023-06-11T00:28:06.186Z,16.84
2023-06-11T00:30:33.621Z,16.82
2023-06-11T00:33:01.590Z,16.80
2023-06-11T00:35:29.145Z,16.75
2023-06-11T00:37:58.983Z,16.62
2023-06-11T00:40:26.473Z,16.55
2023-06-11T00:42:54.052Z,16.54
2023-06-11T00:45:23.634Z,16.52
2023-06-11T00:47:51.709Z,16.57
2023-06-11T00:53:20.510Z,16.51
2023-06-11T00:56:09.786Z,16.51
2023-06-11T00:58:43.428Z,16.45
2023-06-11T01:01:27.624Z,16.37
2023-06-11T01:03:59.087Z,16.28
2023-06-11T01:06:30.013Z,16.21
2023-06-11T01:08:59.698Z,16.07
2023-06-11T01:11:36.722Z,15.99
2023-06-11T01:14:12.277Z,16.04
2023-06-11T01:16:49.024Z,15.93
2023-06-11T01:19:35.054Z,15.87
2023-06-11T01:22:10.354Z,15.82
2023-06-11T01:25:03.059Z,15.79
2023-06-11T01:27:55.743Z,15.75
2023-06-11T01:30:25.209Z,15.80
2023-06-11T01:32:54.534Z,15.84
2023-06-11T01:35:26.773Z,15.82
2023-06-11T01:37:59.364Z,15.68
2023-06-11T01:40:36.951Z,15.56
2023-06-11T01:43:06.818Z,15.41
2023-06-11T01:45:35.397Z,15.32
2023-06-11T01:48:02.955Z,15.25
2023-06-11T01:50:31.674Z,15.15
2023-06-11T01:52:59.151Z,15.15
2023-06-11T01:55:28.800Z,15.19
2023-06-11T01:57:56.848Z,15.18
2023-06-11T02:00:24.168Z,15.19
2023-06-11T02:02:51.735Z,15.24
2023-06-11T02:05:19.305Z,15.17
2023-06-11T02:07:47.182Z,15.16
2023-06-11T02:10:14.825Z,15.10
2023-06-11T02:12:42.280Z,15.16
2023-06-11T02:15:10.512Z,15.22
2023-06-11T02:17:38.367Z,15.18
2023-06-11T02:20:07.628Z,15.15
2023-06-11T02:22:35.751Z,15.11
2023-06-11T02:25:03.618Z,15.06
2023-06-11T02:27:32.411Z,15.00
2023-06-11T02:30:02.894Z,15.05
2023-06-11T02:32:31.985Z,15.07
2023-06-11T02:35:02.500Z,15.07
2023-06-11T02:37:29.971Z,15.13
2023-06-11T02:39:57.702Z,15.10
2023-06-11T02:42:41.116Z,15.07
2023-06-11T02:45:11.510Z,15.04
2023-06-11T02:47:39.949Z,15.03
2023-06-11T02:50:07.981Z,15.00
2023-06-11T02:52:35.485Z,15.01
2023-06-11T02:55:03.037Z,15.01
2023-06-11T02:57:30.897Z,15.02
2023-06-11T02:59:58.387Z,15.03
2023-06-11T03:02:25.906Z,14.98
2023-06-11T03:04:53.320Z,14.91
2023-06-11T03:07:21.327Z,14.90
2023-06-11T03:09:48.763Z,14.88
2023-06-11T03:12:16.612Z,14.85
2023-06-11T03:14:44.669Z,14.91
2023-06-11T03:17:12.155Z,15.03
2023-06-11T03:19:39.707Z,15.10
2023-06-11T03:22:08.103Z,15.07
2023-06-11T03:24:35.904Z,14.98
2023-06-11T03:27:13.505Z,14.90
2023-06-11T03:29:41.591Z,14.93
2023-06-11T03:32:11.944Z,14.87
2023-06-11T03:34:44.095Z,14.78
2023-06-11T03:37:12.615Z,14.78
2023-06-11T03:39:40.116Z,14.77
2023-06-11T03:42:08.348Z,14.75
2023-06-11T03:44:36.363Z,14.90
2023-06-11T03:47:04.238Z,14.84
2023-06-11T03:49:31.917Z,14.88
2023-06-11T03:51:59.528Z,14.87
2023-06-11T03:54:27.256Z,14.94
2023-06-11T03:56:55.522Z,15.00
2023-06-11T03:59:22.967Z,15.03
2023-06-11T04:01:50.528Z,15.06
2023-06-11T04:04:18.122Z,15.04
2023-06-11T04:06:45.720Z,15.08
2023-06-11T04:09:13.982Z,15.06
2023-06-11T04:11:41.486Z,14.97
2023-06-11T04:14:08.915Z,14.96
2023-06-11T04:16:36.538Z,14.90
2023-06-11T04:19:06.961Z,14.81
2023-06-11T04:21:34.927Z,14.84
2023-06-11T04:24:07.480Z,14.91
2023-06-11T04:26:38.293Z,14.98
2023-06-11T04:29:06.550Z,15.07
2023-06-11T04:31:34.217Z,15.11
2023-06-11T04:34:08.295Z,15.22
2023-06-11T04:36:39.672Z,15.34
2023-06-11T04:39:09.450Z,15.50
2023-06-11T04:41:39.008Z,15.67
2023-06-11T04:44:07.462Z,15.86
2023-06-11T04:46:35.948Z,15.92
2023-06-11T04:49:08.199Z,16.14
2023-06-11T04:51:42.105Z,16.48
2023-06-11T04:54:10.998Z,16.66
2023-06-11T04:56:45.191Z,16.94
2023-06-11T04:59:13.412Z,17.30
2023-06-11T05:01:48.030Z,17.95
2023-06-11T05:04:18.630Z,18.65
2023-06-11T05:06:47.175Z,18.65
2023-06-11T05:09:18.670Z,18.44
2023-06-11T05:11:49.233Z,18.22
2023-06-11T05:14:17.882Z,18.49
2023-06-11T05:16:47.301Z,18.48
2023-06-11T05:19:15.862Z,18.61
2023-06-11T05:21:43.544Z,18.73
2023-06-11T05:24:20.247Z,18.61
2023-06-11T05:26:49.351Z,18.84
2023-06-11T05:29:17.324Z,18.89
2023-06-11T05:31:46.195Z,19.14
2023-06-11T05:34:14.573Z,19.10
2023-06-11T05:36:43.386Z,19.03
2023-06-11T05:39:15.034Z,19.17
2023-06-11T05:41:43.028Z,19.18
2023-06-11T05:44:11.006Z,19.29
2023-06-11T05:46:40.215Z,19.45
2023-06-11T05:49:08.636Z,19.55
2023-06-11T05:51:37.292Z,19.60
2023-06-11T05:54:06.067Z,19.44
2023-06-11T05:56:35.776Z,19.69
2023-06-11T05:59:03.495Z,19.61
2023-06-11T06:01:34.419Z,19.75
2023-06-11T06:04:03.686Z,19.74
2023-06-11T06:06:32.219Z,19.96
2023-06-11T06:09:00.478Z,20.13
2023-06-11T06:11:28.710Z,20.38
2023-06-11T06:13:56.596Z,20.23
2023-06-11T06:16:27.622Z,20.61
2023-06-11T06:18:58.324Z,20.69
2023-06-11T06:21:25.910Z,20.86
2023-06-11T06:23:53.502Z,21.18
2023-06-11T06:26:21.411Z,21.13
2023-06-11T06:28:49.365Z,21.39
2023-06-11T06:31:18.739Z,21.78
2023-06-11T06:33:47.709Z,21.75
2023-06-11T06:36:15.766Z,22.26
2023-06-11T06:38:43.325Z,22.06
2023-06-11T06:41:10.724Z,22.13
2023-06-11T06:43:38.210Z,21.87
2023-06-11T06:46:12.619Z,22.08
2023-06-11T06:48:40.877Z,22.16
2023-06-11T06:51:09.210Z,22.21
2023-06-11T06:53:41.232Z,22.25
2023-06-11T06:56:09.768Z,22.27
2023-06-11T06:58:37.363Z,22.29
2023-06-11T07:01:05.068Z,22.56
2023-06-11T07:03:35.069Z,22.78
2023-06-11T07:06:03.527Z,22.88
2023-06-11T07:08:32.613Z,22.88
2023-06-11T07:11:01.726Z,23.00
2023-06-11T07:13:37.884Z,23.04
2023-06-11T07:16:07.102Z,22.95
2023-06-11T07:18:36.529Z,22.96
2023-06-11T07:21:04.092Z,23.15
2023-06-11T07:23:32.505Z,23.31
2023-06-11T07:26:03.435Z,23.48
2023-06-11T07:28:33.929Z,23.52
2023-06-11T07:31:03.437Z,23.44
2023-06-11T07:33:31.396Z,23.48
2023-06-11T07:36:00.859Z,23.34
2023-06-11T07:38:31.015Z,23.56
2023-06-11T07:40:58.516Z,23.27
2023-06-11T07:43:26.645Z,23.09
2023-06-11T07:45:54.499Z,23.01
2023-06-11T07:48:21.972Z,22.91
2023-06-11T07:50:51.329Z,23.33
2023-06-11T07:53:22.992Z,23.24
2023-06-11T07:55:57.258Z,23.47
2023-06-11T07:58:25.176Z,23.52
2023-06-11T08:00:54.064Z,23.43
2023-06-11T08:03:22.465Z,23.66
2023-06-11T08:05:49.969Z,23.71
2023-06-11T08:08:17.562Z,23.70
2023-06-11T08:10:47.006Z,23.84
2023-06-11T08:13:15.459Z,23.99
2023-06-11T08:15:43.019Z,24.09
2023-06-11T08:18:10.555Z,24.04
2023-06-11T08:20:38.354Z,23.71
2023-06-11T08:23:06.036Z,23.45
2023-06-11T08:25:33.420Z,23.19
2023-06-11T08:28:00.692Z,23.77
2023-06-11T08:30:28.284Z,23.69
2023-06-11T08:32:57.526Z,24.12
2023-06-11T08:35:25.185Z,24.29
2023-06-11T08:37:52.719Z,24.56
2023-06-11T08:40:22.928Z,24.64
2023-06-11T08:42:51.920Z,24.77
2023-06-11T08:45:19.497Z,24.82
2023-06-11T08:47:57.924Z,24.71
2023-06-11T08:50:26.209Z,24.62
2023-06-11T08:52:54.445Z,24.33
2023-06-11T08:55:22.214Z,23.59
2023-06-11T08:57:52.808Z,23.04
2023-06-11T09:00:20.603Z,22.76
2023-06-11T09:02:52.199Z,22.93
2023-06-11T09:05:20.129Z,23.31
2023-06-11T09:07:53.911Z,23.45
2023-06-11T09:10:22.476Z,23.78
2023-06-11T09:12:50.740Z,24.03
2023-06-11T09:15:19.777Z,24.34
2023-06-11T09:17:50.254Z,23.98
2023-06-11T09:20:22.683Z,23.87
2023-06-11T09:22:51.896Z,23.85
2023-06-11T09:25:19.650Z,23.52
2023-06-11T09:27:49.093Z,23.24
2023-06-11T09:30:18.801Z,23.59
2023-06-11T09:32:49.161Z,23.97
2023-06-11T09:35:21.348Z,23.57
2023-06-11T09:37:52.794Z,23.52
2023-06-11T09:40:25.203Z,23.78
2023-06-11T09:42:52.840Z,24.17
2023-06-11T09:45:22.925Z,24.11
2023-06-11T09:47:52.621Z,24.42
2023-06-11T09:50:21.400Z,24.43
2023-06-11T09:52:51.364Z,24.38
2023-06-11T09:55:19.105Z,24.63
2023-06-11T09:57:47.852Z,24.59
2023-06-11T10:00:16.927Z,24.52
2023-06-11T10:02:46.068Z,24.73
2023-06-11T10:05:14.379Z,24.68
2023-06-11T10:07:56.968Z,24.14
2023-06-11T10:10:25.910Z,24.18
2023-06-11T10:12:54.576Z,23.46
2023-06-11T10:15:24.833Z,23.72
2023-06-11T10:17:54.586Z,24.02
2023-06-11T10:20:29.054Z,24.43
2023-06-11T10:23:12.396Z,24.03
2023-06-11T10:25:41.965Z,23.68
2023-06-11T10:28:11.089Z,23.81
2023-06-11T10:30:39.592Z,24.20
2023-06-11T10:33:07.233Z,24.34
2023-06-11T10:35:34.761Z,24.61
2023-06-11T10:38:03.839Z,24.87
2023-06-11T10:40:36.892Z,24.82
2023-06-11T10:43:15.799Z,25.04
2023-06-11T10:45:44.462Z,25.44
2023-06-11T10:48:29.821Z,25.55
2023-06-11T10:51:14.507Z,25.13
2023-06-11T10:53:42.625Z,25.18
2023-06-11T10:56:13.828Z,25.28
2023-06-11T10:58:42.159Z,25.14
2023-06-11T11:01:10.147Z,24.77
2023-06-11T11:03:39.832Z,24.39
2023-06-11T11:06:10.087Z,24.46
2023-06-11T11:12:08.916Z,23.72
2023-06-11T11:14:49.890Z,23.94
2023-06-11T11:17:18.064Z,24.25
2023-06-11T11:19:46.608Z,23.94
2023-06-11T11:22:14.451Z,23.43
2023-06-11T11:24:44.702Z,23.40
2023-06-11T11:27:15.699Z,23.94
2023-06-11T11:29:44.262Z,24.32
2023-06-11T11:32:11.954Z,24.60
2023-06-11T11:34:42.661Z,24.91
2023-06-11T11:37:10.601Z,25.15
2023-06-11T11:39:38.083Z,25.10
2023-06-11T11:42:08.576Z,25.23
2023-06-11T11:44:41.080Z,25.44
2023-06-11T11:47:15.937Z,25.83
2023-06-11T11:49:45.928Z,26.01
2023-06-11T11:52:14.225Z,25.80
2023-06-11T11:54:45.790Z,25.73
2023-06-11T11:57:13.587Z,25.59
2023-06-11T11:59:41.968Z,25.23
2023-06-11T12:02:10.833Z,25.20
2023-06-11T12:04:40.765Z,24.56
2023-06-11T12:07:13.683Z,24.30
2023-06-11T12:09:41.518Z,24.25
2023-06-11T12:12:10.212Z,24.20
2023-06-11T12:14:39.482Z,24.71
2023-06-11T12:17:12.584Z,24.57
2023-06-11T12:19:40.319Z,24.19
2023-06-11T12:22:08.091Z,24.58
2023-06-11T12:24:38.005Z,25.15
2023-06-11T12:27:10.287Z,25.45
2023-06-11T12:29:40.222Z,25.38
2023-06-11T12:32:14.420Z,25.09
2023-06-11T12:34:41.989Z,25.07
2023-06-11T12:37:11.570Z,24.93
2023-06-11T12:39:39.163Z,25.00
2023-06-11T12:42:07.748Z,24.82
2023-06-11T12:44:35.451Z,24.31
2023-06-11T12:47:03.527Z,24.52
2023-06-11T12:49:32.878Z,24.73
2023-06-11T12:52:01.199Z,25.01
2023-06-11T12:54:28.767Z,25.25
2023-06-11T12:56:56.306Z,25.06
2023-06-11T12:59:24.325Z,24.73
2023-06-11T13:01:52.560Z,24.76
2023-06-11T13:04:20.104Z,24.82
2023-06-11T13:06:47.884Z,25.11
2023-06-11T13:09:16.208Z,25.55
2023-06-11T13:11:47.941Z,25.55
2023-06-11T13:14:18.111Z,25.06
2023-06-11T13:16:47.230Z,24.12
2023-06-11T13:19:15.072Z,23.92
2023-06-11T13:21:44.009Z,24.31
2023-06-11T13:24:11.713Z,24.69
2023-06-11T13:26:39.765Z,24.95
2023-06-11T13:29:07.393Z,25.14
2023-06-11T13:31:34.970Z,25.02
2023-06-11T13:34:02.854Z,25.19
2023-06-11T13:36:30.905Z,25.46
2023-06-11T13:38:58.500Z,25.27
2023-06-11T13:41:33.058Z,25.11
2023-06-11T13:44:07.367Z,24.39
2023-06-11T13:46:36.357Z,23.70
2023-06-11T13:49:05.591Z,23.51
2023-06-11T13:51:33.678Z,23.82
2023-06-11T13:54:01.341Z,24.32
2023-06-11T13:56:28.892Z,24.72
2023-06-11T13:59:06.763Z,25.00
2023-06-11T14:01:34.926Z,24.92
2023-06-11T14:04:02.891Z,25.15
2023-06-11T14:06:33.451Z,25.26
2023-06-11T14:09:01.673Z,25.35
2023-06-11T14:11:32.980Z,25.30
2023-06-11T14:14:03.874Z,25.14
2023-06-11T14:16:37.510Z,25.11
2023-06-11T14:19:08.292Z,25.07
2023-06-11T14:21:36.494Z,25.10
2023-06-11T14:24:04.910Z,25.09
2023-06-11T14:26:32.994Z,25.06
2023-06-11T14:29:01.449Z,25.27
2023-06-11T14:31:37.339Z,25.54
2023-06-11T14:34:06.222Z,25.69
2023-06-11T14:36:34.208Z,25.44
2023-06-11T14:39:05.761Z,25.10
2023-06-11T14:41:33.598Z,25.32
2023-06-11T14:44:01.710Z,25.23
2023-06-11T14:46:29.612Z,25.47
2023-06-11T14:48:57.398Z,25.52
2023-06-11T14:51:25.180Z,25.66
2023-06-11T14:53:52.771Z,25.41
2023-06-11T14:56:20.935Z,24.74
2023-06-11T14:58:48.465Z,24.17
2023-06-11T15:01:16.048Z,24.19
2023-06-11T15:03:43.901Z,24.45
2023-06-11T15:06:12.190Z,24.81
2023-06-11T15:08:39.726Z,24.97
2023-06-11T15:11:07.728Z,24.84
2023-06-11T15:13:35.372Z,25.04
2023-06-11T15:16:02.759Z,24.95
2023-06-11T15:18:30.161Z,24.87
2023-06-11T15:20:57.656Z,24.68
2023-06-11T15:23:25.097Z,24.85
2023-06-11T15:25:53.781Z,24.78
2023-06-11T15:28:21.729Z,24.70
2023-06-11T15:30:49.301Z,24.63
2023-06-11T15:33:19.028Z,24.65
2023-06-11T15:35:46.718Z,24.66
2023-06-11T15:38:14.244Z,24.92
2023-06-11T15:40:42.446Z,25.01
2023-06-11T15:43:10.423Z,24.81
2023-06-11T15:45:38.415Z,24.78
2023-06-11T15:48:06.156Z,24.83
2023-06-11T15:50:33.784Z,24.81
2023-06-11T15:53:01.250Z,24.75
2023-06-11T15:55:30.500Z,24.65
2023-06-11T15:57:58.055Z,24.54
2023-06-11T16:00:26.066Z,24.63
2023-06-11T16:02:53.734Z,24.78
2023-06-11T16:05:21.287Z,24.86
2023-06-11T16:07:48.786Z,24.52
2023-06-11T16:10:16.546Z,24.42
2023-06-11T16:12:46.118Z,24.45
2023-06-11T16:15:16.102Z,24.37
2023-06-11T16:17:46.170Z,24.25
2023-06-11T16:20:15.930Z,24.26
2023-06-11T16:22:43.473Z,24.35
2023-06-11T16:25:11.689Z,24.16
2023-06-11T16:27:40.543Z,24.38
2023-06-11T16:30:09.297Z,24.49
2023-06-11T16:32:36.968Z,24.45
2023-06-11T16:35:07.798Z,24.27
2023-06-11T16:37:35.488Z,24.29
2023-06-11T16:40:07.504Z,24.02
2023-06-11T16:42:35.017Z,23.83
2023-06-11T16:45:02.664Z,23.80
2023-06-11T16:47:30.236Z,23.81
2023-06-11T16:49:59.922Z,23.87
2023-06-11T16:52:28.642Z,24.05
2023-06-11T16:54:58.822Z,23.91
2023-06-11T16:57:26.353Z,23.93
2023-06-11T16:59:54.607Z,23.88
2023-06-11T17:02:23.791Z,23.73
2023-06-11T17:04:53.461Z,23.51
2023-06-11T17:07:21.126Z,23.53
2023-06-11T17:09:48.632Z,23.47
2023-06-11T17:12:17.714Z,23.52
2023-06-11T17:14:48.229Z,23.58
2023-06-11T17:17:15.834Z,23.61
2023-06-11T17:19:46.382Z,23.48
2023-06-11T17:22:16.566Z,23.38
2023-06-11T17:24:44.449Z,23.30
2023-06-11T17:27:12.544Z,23.19
2023-06-11T17:29:40.061Z,23.17
2023-06-11T17:32:08.381Z,23.15
2023-06-11T17:34:38.660Z,23.13
2023-06-11T17:37:08.138Z,23.12
2023-06-11T17:39:35.645Z,22.95
2023-06-11T17:42:02.977Z,23.02
2023-06-11T17:44:30.731Z,22.88
2023-06-11T17:46:58.262Z,22.83
2023-06-11T17:49:26.374Z,22.86
2023-06-11T17:51:53.861Z,22.65
2023-06-11T17:54:23.058Z,22.61
2023-06-11T17:56:51.216Z,22.62
2023-06-11T17:59:18.564Z,22.50
2023-06-11T18:01:54.297Z,22.45
2023-06-11T18:04:24.101Z,22.37
2023-06-11T18:06:52.357Z,22.31
2023-06-11T18:09:20.457Z,22.34
2023-06-11T18:14:44.120Z,22.26
2023-06-11T18:17:11.701Z,22.23
2023-06-11T18:19:38.925Z,22.23
2023-06-11T18:22:06.845Z,22.07
2023-06-11T18:33:12.954Z,21.74
2023-06-11T18:35:42.598Z,21.69
2023-06-11T18:38:18.420Z,21.61
2023-06-11T18:40:46.158Z,21.65
2023-06-11T18:43:13.941Z,21.54
2023-06-11T18:45:44.273Z,21.42
2023-06-11T18:48:12.040Z,21.42
2023-06-11T18:50:41.719Z,21.36
2023-06-11T18:53:17.024Z,21.31
2023-06-11T18:55:57.663Z,21.17
2023-06-11T18:58:35.067Z,21.07
2023-06-11T19:01:07.688Z,20.97
2023-06-11T19:03:39.285Z,20.95
2023-06-11T19:06:14.636Z,20.87
2023-06-11T19:08:44.701Z,20.90
2023-06-11T19:11:17.901Z,20.80
2023-06-11T19:13:48.689Z,20.86
2023-06-11T19:16:16.864Z,20.80
2023-06-11T19:18:56.380Z,20.74
2023-06-11T19:21:26.059Z,20.63
2023-06-11T19:24:02.485Z,20.59
2023-06-11T19:26:30.940Z,20.55
2023-06-11T19:28:58.298Z,20.53
2023-06-11T19:31:28.365Z,20.43
2023-06-11T19:33:59.654Z,20.36
2023-06-11T19:36:26.892Z,20.42
2023-06-11T19:38:57.981Z,20.42
2023-06-11T19:41:30.359Z,20.42
2023-06-11T19:44:00.911Z,20.35
2023-06-11T19:46:35.564Z,20.26
2023-06-11T19:49:03.821Z,20.31
2023-06-11T19:51:33.764Z,20.23
2023-06-11T19:54:04.362Z,20.21
2023-06-11T19:56:45.241Z,20.19
2023-06-11T19:59:42.266Z,20.19
2023-06-11T20:02:09.506Z,20.15
2023-06-11T20:04:38.160Z,20.08
2023-06-11T20:07:08.742Z,20.05
2023-06-11T20:09:41.172Z,20.03
2023-06-11T20:12:08.728Z,19.99
2023-06-11T20:14:37.088Z,20.01
2023-06-11T20:17:09.518Z,20.00
2023-06-11T20:19:37.149Z,19.93
2023-06-11T20:22:07.698Z,19.87
2023-06-11T20:24:41.069Z,19.88
2023-06-11T20:27:11.619Z,19.81
2023-06-11T20:29:41.310Z,19.82
2023-06-11T20:32:14.609Z,19.82
2023-06-11T20:34:41.843Z,19.80
2023-06-11T20:37:09.413Z,19.79
2023-06-11T20:39:40.342Z,19.76
2023-06-11T20:42:08.168Z,19.86
2023-06-11T20:44:38.603Z,19.74
2023-06-11T20:47:07.112Z,19.60
2023-06-11T20:49:34.623Z,19.65
2023-06-11T20:52:01.841Z,19.65
2023-06-11T20:54:29.643Z,19.60
2023-06-11T20:56:56.714Z,19.60
2023-06-11T20:59:24.269Z,19.48
2023-06-11T21:01:51.549Z,19.36
2023-06-11T21:04:21.044Z,19.30
2023-06-11T21:06:48.488Z,19.30
2023-06-11T21:09:18.130Z,19.21
2023-06-11T21:11:45.465Z,19.18
2023-06-11T21:14:21.142Z,19.13
2023-06-11T21:16:51.626Z,19.04
2023-06-11T21:19:21.928Z,18.90
2023-06-11T21:21:49.129Z,18.62
2023-06-11T21:24:19.366Z,18.49
2023-06-11T21:26:46.661Z,18.25
2023-06-11T21:29:16.218Z,18.07
2023-06-11T21:31:44.012Z,17.94
2023-06-11T21:34:11.196Z,17.81
2023-06-11T21:36:38.407Z,17.77
2023-06-11T21:39:05.860Z,17.75
2023-06-11T21:41:34.977Z,17.79
2023-06-11T21:44:02.197Z,17.72
2023-06-11T21:46:29.405Z,17.65
2023-06-11T21:48:59.057Z,17.54
2023-06-11T21:51:30.292Z,17.48
2023-06-11T21:54:00.380Z,17.56
2023-06-11T21:56:27.784Z,17.64
2023-06-11T21:58:55.278Z,17.72
2023-06-11T22:01:22.608Z,17.71
2023-06-11T22:03:49.971Z,17.78
2023-06-11T22:06:17.413Z,17.77
2023-06-11T22:08:45.789Z,17.71
2023-06-11T22:11:13.486Z,17.64
2023-06-11T22:13:40.976Z,17.56
2023-06-11T22:16:08.292Z,17.56
2023-06-11T22:18:35.564Z,17.55
2023-06-11T22:21:02.884Z,17.48
2023-06-11T22:23:45.689Z,17.46
2023-06-11T22:26:18.436Z,17.43
2023-06-11T22:28:45.900Z,17.46
2023-06-11T22:31:13.394Z,17.37
2023-06-11T22:33:40.815Z,17.36
2023-06-11T22:36:08.153Z,17.37
2023-06-11T22:38:35.588Z,17.38
2023-06-11T22:41:03.009Z,17.26
2023-06-11T22:43:32.440Z,17.20
2023-06-11T22:45:59.636Z,17.12
2023-06-11T22:48:26.858Z,17.14
2023-06-11T22:50:53.984Z,17.12
2023-06-11T22:53:22.728Z,17.05
2023-06-11T22:55:49.841Z,17.12
2023-06-11T22:58:23.882Z,17.01
2023-06-11T23:00:51.023Z,17.01
2023-06-11T23:03:18.504Z,16.92
2023-06-11T23:05:45.911Z,16.84
2023-06-11T23:08:13.072Z,16.84
2023-06-11T23:10:40.180Z,16.76
2023-06-11T23:13:07.491Z,16.73
2023-06-11T23:15:34.659Z,16.73
2023-06-11T23:18:06.119Z,16.71
2023-06-11T23:20:36.058Z,16.74
2023-06-11T23:23:05.811Z,16.73
2023-06-11T23:25:33.677Z,16.81
2023-06-11T23:28:02.732Z,16.80
2023-06-11T23:30:32.738Z,16.82
2023-06-11T23:33:06.968Z,16.78
2023-06-11T23:35:34.344Z,16.79
2023-06-11T23:38:04.043Z,16.78
2023-06-11T23:40:34.548Z,16.70
2023-06-11T23:43:01.753Z,16.76
2023-06-11T23:45:28.897Z,16.75
2023-06-11T23:47:58.280Z,16.69
2023-06-11T23:50:25.511Z,16.63
2023-06-11T23:52:52.691Z,16.64
2023-06-11T23:55:19.981Z,16.61
2023-06-11T23:58:05.101Z,16.60
